weerbeeld Almere Meer informatie weerbeeld Almere


Onweer radar Meer informatie blitzortung!


Regen radar Meer informatie rain snow radar


Apparatuur in gebruik:

Davis VP2

Meteohub

ALIX 1D

Web-Oke


Het weer levert geen direct gevaar op.    Er zijn geen waarschuwingen afgegeven.

METAR rapporten vliegvelden

   
EHAM - Amsterdam/Schiph, Netherlands
Afstand tot: WZW 42 km
Gewijzigd: 18-10-2018 04:55
Grotendeels bewolkt  
Grotendeels bewolkt  
   Wind: Noorden 13 km/h
Wind: Noorden 13 km/h
Temperatuur: 14°C
Dauwpunt: 12°C
Vochtigheid: 88%
Barometer: 1023 hPa
Bewolking: Mostly Cloudy
Zicht: meer dan 10 km
Bewolking: Licht bewolkt 1700 ft,
Grotendeels bewolkt 2700 ft
EHAM 180255Z 36007KT 320V030 9999 FEW017 BKN027 14/12 Q1023 NOSIG
EHDL - Deelen Rnlafb, Netherlands
Afstand tot: ZO 49 km
Gewijzigd: 18-10-2018 04:55
Nevel, Bewolking  
Nevel, Bewolking  
   Wind: varieert 1.9 km/h
Wind: varieert 1.9 km/h
Temperatuur: 9°C
Dauwpunt: 9°C
Vochtigheid: 100%
Barometer: 1022 hPa
Bewolking: Overcast
Zicht: 5 km
Bewolking: Bewolking 0 ft
EHDL 180255Z AUTO VRB01KT 5000 BR OVC000 09/09 Q1022 RED
EHKD - De Kooy (navy), Netherlands
Afstand tot: NW 72 km
Gewijzigd: 18-10-2018 05:03
Grotendeels bewolkt  
Grotendeels bewolkt  
   Wind: Noorden 11.1 km/h
Wind: Noorden 11.1 km/h
Temperatuur: 13°C
Dauwpunt: 11°C
Vochtigheid: 88%
Barometer: 1023 hPa
Bewolking: Mostly Cloudy
Zicht: meer dan 10 km
Bewolking: Licht bewolkt 1500 ft,
Gedeeltelijk bewolkt 2300 ft,
Grotendeels bewolkt 4500 ft
EHKD 180303Z AUTO 36006KT 330V040 9999 FEW015 SCT023 BKN045 13/11 Q1023 WHT
EHRD - Rotterdam Airpor, Netherlands
Afstand tot: ZW 80 km
Gewijzigd: 18-10-2018 04:55
Heavy Drizzle, Grotendeels bewolkt  
Heavy Drizzle, Grotendeels bewolkt  
   Wind: Noorden 5.6 km/h
Wind: Noorden 5.6 km/h
Temperatuur: 12°C
Dauwpunt: 12°C
Vochtigheid: 100%
Barometer: 1023 hPa
Bewolking: Mostly Cloudy
Zicht: 3 km
Bewolking: Gedeeltelijk bewolkt 400 ft,
Gedeeltelijk bewolkt 500 ft,
Grotendeels bewolkt 1000 ft
EHRD 180255Z AUTO 35003KT 320V040 2700 +DZ SCT004 SCT005 BKN010 12/12 Q1023 BECMG 36008KT 9999 NSW BKN017
EHVK - Volkel Rnlafb, Netherlands
Afstand tot: ZZO 87 km
Gewijzigd: 18-10-2018 04:55
Nevel, Bewolking  
Nevel, Bewolking  
   Wind: Noorden 7.4 km/h
Wind: Noorden 7.4 km/h
Temperatuur: 12°C
Dauwpunt: 11°C
Vochtigheid: 94%
Barometer: 1022 hPa
Bewolking: Overcast
Zicht: 5 km
Bewolking: Grotendeels bewolkt 3100 ft,
Bewolking 21000 ft
EHVK 180255Z AUTO 35004KT 4800 BR BKN031 OVC210 12/11 Q1022 GRN
EHLW - Leeuwarden Rnlaf, Netherlands
Afstand tot: NNO 95 km
Gewijzigd: 18-10-2018 04:59
Bewolking  
Bewolking  
   Wind: Noorden 13 km/h
Wind: Noorden 13 km/h
Temperatuur: 12°C
Dauwpunt: 11°C
Vochtigheid: 94%
Barometer: 1023 hPa
Bewolking: Overcast
Zicht: meer dan 10 km
Bewolking: Gedeeltelijk bewolkt 1400 ft,
Gedeeltelijk bewolkt 4600 ft,
Bewolking 5500 ft
EHLW 180259Z AUTO 35007KT 9999 SCT014 SCT046 OVC055 12/11 Q1023 GRN

Script ontwikkeld door  Saratoga-weather.org Aangepast voor de template door  Weerstation Leuven

U vindt ons ook hier:

Het Weer Aktueel

UK Metoffice

European Weather Network

Weather Underground

AWEKAS